Time;durP1;ratioP1;P1;durP2;ratioP2;P2;SDS_P1;SDS_P2;PMS_P1;PMS_P2;Temp;Humidity;BMP_temperature;BMP_pressure;BME280_temperature;BME280_humidity;BME280_pressure;Samples;Min_cycle;Max_cycle;Signal;HPM_P1;HPM_P2
2023/09/08 00:00:50;;;;;;;6.97;5.55;;;;;;;20.27;100.00;101887.34;4897317;29;20052;-80
2023/09/08 00:03:18;;;;;;;9.38;5.68;;;;;;;20.22;100.00;101884.75;4911189;29;20071;-80
2023/09/08 00:05:45;;;;;;;8.55;5.40;;;;;;;20.18;100.00;101883.91;4913120;29;20059;-80
2023/09/08 00:08:13;;;;;;;7.72;6.90;;;;;;;20.15;100.00;101881.31;4915972;29;20052;-79
2023/09/08 00:10:40;;;;;;;10.00;6.80;;;;;;;20.13;100.00;101892.94;4901265;29;20052;-81
2023/09/08 00:13:08;;;;;;;8.23;6.47;;;;;;;20.10;100.00;101891.22;4923164;29;20048;-80
2023/09/08 00:15:36;;;;;;;9.10;6.85;;;;;;;20.05;100.00;101896.66;4913651;29;20048;-79
2023/09/08 00:18:04;;;;;;;6.03;5.50;;;;;;;20.02;100.00;101885.16;4885000;29;20048;-80
2023/09/08 00:20:32;;;;;;;6.22;5.63;;;;;;;19.98;100.00;101892.34;4910136;29;20052;-79
2023/09/08 00:22:59;;;;;;;9.10;6.05;;;;;;;19.92;100.00;101888.91;4916101;29;20036;-79
2023/09/08 00:25:26;;;;;;;6.85;5.38;;;;;;;19.88;100.00;101881.84;4897829;29;20551;-80
2023/09/08 00:27:54;;;;;;;5.80;5.03;;;;;;;19.85;100.00;101878.34;4915985;29;20056;-80
2023/09/08 00:30:21;;;;;;;10.52;5.78;;;;;;;19.83;100.00;101884.63;4897823;29;20056;-79
2023/09/08 00:32:49;;;;;;;7.90;5.90;;;;;;;19.78;100.00;101876.69;4901640;29;20059;-81
2023/09/08 00:35:17;;;;;;;7.47;6.30;;;;;;;19.75;100.00;101874.06;4909105;29;20044;-80
2023/09/08 00:37:45;;;;;;;8.93;6.25;;;;;;;19.72;100.00;101874.13;4917483;29;20060;-80
2023/09/08 00:40:12;;;;;;;6.78;6.05;;;;;;;19.71;100.00;101874.13;4930184;29;20048;-80
2023/09/08 00:42:40;;;;;;;9.20;6.15;;;;;;;19.68;100.00;101877.75;4883379;29;20048;-79
2023/09/08 00:45:08;;;;;;;9.40;6.20;;;;;;;19.66;100.00;101882.25;4916360;29;20060;-80
2023/09/08 00:47:37;;;;;;;11.13;6.28;;;;;;;19.63;100.00;101874.25;4918557;29;20048;-80
2023/09/08 00:50:05;;;;;;;9.98;7.28;;;;;;;19.58;100.00;101877.00;4899114;29;20048;-81
2023/09/08 00:52:33;;;;;;;9.18;7.35;;;;;;;19.57;100.00;101877.06;4913155;29;20059;-80
2023/09/08 00:55:01;;;;;;;12.13;7.78;;;;;;;19.56;100.00;101877.94;4916238;29;20056;-80
2023/09/08 00:57:29;;;;;;;9.38;8.07;;;;;;;19.51;100.00;101870.03;4911506;29;20057;-80
2023/09/08 00:59:57;;;;;;;16.30;11.38;;;;;;;19.48;100.00;101868.28;4909056;29;20048;-81
2023/09/08 01:02:25;;;;;;;12.63;11.32;;;;;;;19.45;100.00;101873.69;4929153;29;20051;-80
2023/09/08 01:04:53;;;;;;;14.18;11.55;;;;;;;19.43;100.00;101867.50;4881262;29;20052;-81
2023/09/08 01:07:21;;;;;;;11.82;9.32;;;;;;;19.43;100.00;101869.25;4895938;29;20051;-79
2023/09/08 01:09:48;;;;;;;13.00;9.55;;;;;;;19.42;100.00;101867.50;4885417;29;20055;-82
2023/09/08 01:12:16;;;;;;;12.23;9.50;;;;;;;19.41;100.00;101866.63;4928606;29;20059;-80
2023/09/08 01:14:44;;;;;;;10.82;9.25;;;;;;;19.38;100.00;101872.03;4927713;29;20056;-80
2023/09/08 01:17:12;;;;;;;11.98;8.75;;;;;;;19.37;100.00;101870.25;4913738;29;20044;-80
2023/09/08 01:19:42;;;;;;;11.63;8.90;;;;;;;19.33;100.00;101860.53;4870606;29;20051;-80
2023/09/08 01:22:22;;;;;;;;;;;;;;;19.29;100.00;101873.06;4908324;29;20057;-80
2023/09/08 01:25:09;;;;;;;8.38;7.47;;;;;;;19.24;100.00;101864.25;4903591;29;19930;-80
2023/09/08 01:27:39;;;;;;;8.27;6.93;;;;;;;19.22;100.00;101874.06;4907596;29;20044;-80
2023/09/08 01:30:07;;;;;;;9.25;6.28;;;;;;;19.20;100.00;101862.50;4904237;29;20047;-81
2023/09/08 01:32:35;;;;;;;8.48;6.20;;;;;;;19.20;100.00;101866.97;4896471;29;20500;-80
2023/09/08 01:35:04;;;;;;;11.25;6.18;;;;;;;19.17;100.00;101859.91;4914322;29;20044;-80
2023/09/08 01:37:32;;;;;;;6.00;5.40;;;;;;;19.15;100.00;101859.06;4873878;29;20080;-80
2023/09/08 01:39:59;;;;;;;7.35;6.38;;;;;;;19.14;100.00;101862.63;4921859;29;20059;-80
2023/09/08 01:42:26;;;;;;;7.60;5.82;;;;;;;19.13;100.00;101854.63;4893363;29;20386;-81
2023/09/08 01:44:54;;;;;;;9.80;5.95;;;;;;;19.11;100.00;101859.13;4907735;29;20052;-80
2023/09/08 01:47:21;;;;;;;8.00;6.20;;;;;;;19.09;100.00;101853.78;4888286;29;20056;-81
2023/09/08 01:49:49;;;;;;;10.13;6.97;;;;;;;19.07;100.00;101859.19;4913216;29;20059;-81
2023/09/08 01:52:16;;;;;;;6.28;5.68;;;;;;;19.04;100.00;101848.53;4860055;29;20055;-80
2023/09/08 01:54:43;;;;;;;7.25;6.45;;;;;;;19.01;100.00;101851.25;4909276;29;20288;-80
2023/09/08 01:57:11;;;;;;;8.57;5.90;;;;;;;18.98;100.00;101851.31;4907288;29;20049;-80
2023/09/08 01:59:38;;;;;;;7.57;5.40;;;;;;;18.97;100.00;101857.53;4893927;29;20463;-80
2023/09/08 02:02:06;;;;;;;6.78;6.07;;;;;;;18.96;100.00;101847.78;4898870;29;20059;-80
2023/09/08 02:04:34;;;;;;;6.65;5.93;;;;;;;18.95;100.00;101848.69;4923340;29;20062;-79
2023/09/08 02:07:03;;;;;;;8.80;5.88;;;;;;;18.93;100.00;101846.94;4868584;29;20047;-80
2023/09/08 02:09:32;;;;;;;8.88;6.30;;;;;;;18.91;100.00;101841.63;4902702;29;20059;-80
2023/09/08 02:12:01;;;;;;;14.20;6.53;;;;;;;18.89;100.00;101844.31;4926902;29;20043;-81
2023/09/08 02:14:29;;;;;;;8.48;6.07;;;;;;;18.88;100.00;101844.34;4911869;29;20082;-80
2023/09/08 02:16:57;;;;;;;8.57;5.88;;;;;;;18.86;100.00;101851.50;4897202;29;20060;-81
2023/09/08 02:19:24;;;;;;;8.77;6.13;;;;;;;18.85;100.00;101849.75;4895772;29;20056;-80
2023/09/08 02:21:52;;;;;;;6.63;5.85;;;;;;;18.83;100.00;101846.22;4911480;29;20059;-79
2023/09/08 02:24:19;;;;;;;7.90;6.03;;;;;;;18.81;100.00;101850.66;4846889;29;20047;-80
2023/09/08 02:26:47;;;;;;;7.68;6.47;;;;;;;18.79;100.00;101836.44;4929138;29;20048;-80
2023/09/08 02:29:15;;;;;;;7.75;6.35;;;;;;;18.76;100.00;101844.50;4906797;29;20056;-80
2023/09/08 02:31:43;;;;;;;11.50;6.10;;;;;;;18.74;100.00;101847.19;4910910;29;20044;-80
2023/09/08 02:34:12;;;;;;;7.22;5.68;;;;;;;18.73;100.00;101849.88;4898836;29;20048;-79
2023/09/08 02:36:40;;;;;;;9.75;6.05;;;;;;;18.69;100.00;101851.72;4893436;29;20059;-79
2023/09/08 02:39:08;;;;;;;7.60;6.35;;;;;;;18.67;100.00;101848.19;4873479;29;20044;-79
2023/09/08 02:41:35;;;;;;;6.20;5.60;;;;;;;18.65;100.00;101847.31;4927389;28;20048;-80
2023/09/08 02:44:04;;;;;;;10.70;6.53;;;;;;;18.60;100.00;101836.72;4896626;29;20056;-81
2023/09/08 02:46:32;;;;;;;8.60;6.30;;;;;;;18.58;100.00;101840.31;4918858;29;20071;-80
2023/09/08 02:49:01;;;;;;;6.88;6.20;;;;;;;18.56;100.00;101842.13;4883049;29;20059;-79
2023/09/08 02:51:31;;;;;;;8.35;6.03;;;;;;;18.53;100.00;101842.19;4895637;29;20052;-79
2023/09/08 02:53:58;;;;;;;6.28;5.60;;;;;;;18.53;100.00;101837.72;4880529;29;20064;-80
2023/09/08 02:56:25;;;;;;;9.35;5.75;;;;;;;18.52;100.00;101838.59;4880335;29;20581;-80
2023/09/08 02:58:53;;;;;;;7.70;6.80;;;;;;;18.50;100.00;101835.06;4899558;29;20063;-80
2023/09/08 03:01:23;;;;;;;7.75;7.03;;;;;;;18.49;100.00;101836.88;4895918;29;20055;-80
2023/09/08 03:03:51;;;;;;;9.32;6.22;;;;;;;18.46;100.00;101828.03;4913331;29;20060;-80
2023/09/08 03:06:21;;;;;;;7.88;6.82;;;;;;;18.47;100.00;101832.47;4897583;29;20432;-79
2023/09/08 03:08:49;;;;;;;7.90;6.05;;;;;;;18.46;100.00;101831.56;4871309;29;20059;-80
2023/09/08 03:11:17;;;;;;;7.88;7.10;;;;;;;18.43;100.00;101831.63;4909517;29;20059;-82
2023/09/08 03:13:46;;;;;;;6.65;5.95;;;;;;;18.43;100.00;101831.63;4911087;29;20096;-80
2023/09/08 03:16:15;;;;;;;8.10;6.68;;;;;;;18.43;100.00;101830.72;4908197;29;20057;-80
2023/09/08 03:18:42;;;;;;;8.32;5.65;;;;;;;18.42;100.00;101826.31;4905711;29;20064;-81
2023/09/08 03:21:14;;;;;;;8.15;6.28;;;;;;;18.41;100.00;101835.19;4911333;29;20056;-80
2023/09/08 03:23:43;;;;;;;7.82;6.43;;;;;;;18.39;100.00;101823.66;4904613;29;20082;-80
2023/09/08 03:26:10;;;;;;;6.47;5.82;;;;;;;18.36;100.00;101826.41;4878133;29;20056;-82
2023/09/08 03:28:41;;;;;;;6.35;5.75;;;;;;;18.34;100.00;101822.88;4930580;28;20059;-80
2023/09/08 03:31:09;;;;;;;6.60;5.97;;;;;;;18.31;100.00;101821.97;4901132;29;20056;-80
2023/09/08 03:33:37;;;;;;;6.95;6.03;;;;;;;18.30;100.00;101811.34;4908601;29;20049;-80
2023/09/08 03:36:07;;;;;;;7.50;6.75;;;;;;;18.27;100.00;101809.59;4883059;29;20048;-80
2023/09/08 03:38:37;;;;;;;12.80;7.60;;;;;;;18.25;100.00;101803.41;4918554;29;20059;-79
2023/09/08 03:41:06;;;;;;;7.47;6.78;;;;;;;18.23;100.00;101805.19;4885744;29;20036;-79
2023/09/08 03:43:33;;;;;;;7.50;6.80;;;;;;;18.22;100.00;101806.13;4902070;29;20056;-81
2023/09/08 03:46:01;;;;;;;9.30;7.20;;;;;;;18.18;100.00;101803.50;4917002;29;20056;-80
2023/09/08 03:48:29;;;;;;;7.82;6.72;;;;;;;18.16;100.00;101799.97;4890803;29;20048;-79
2023/09/08 03:50:57;;;;;;;7.90;7.05;;;;;;;18.15;100.00;101803.53;4910763;29;20055;-80
2023/09/08 03:53:24;;;;;;;9.38;7.40;;;;;;;18.13;100.00;101798.25;4886567;29;20063;-81
2023/09/08 03:55:52;;;;;;;8.07;7.30;;;;;;;18.11;100.00;101797.38;4863076;29;20066;-82
2023/09/08 03:58:19;;;;;;;10.20;7.38;;;;;;;18.10;100.00;101791.13;4894854;29;20044;-80
2023/09/08 04:00:48;;;;;;;7.25;6.55;;;;;;;18.09;100.00;101793.81;4900460;29;20044;-80
2023/09/08 04:03:16;;;;;;;12.45;7.57;;;;;;;18.08;100.00;101797.41;4881261;29;20055;-81
2023/09/08 04:05:44;;;;;;;10.07;7.32;;;;;;;18.06;100.00;101794.75;4922222;29;20059;-79
2023/09/08 04:08:11;;;;;;;11.48;7.28;;;;;;;18.03;100.00;101800.13;4914382;29;20047;-79
2023/09/08 04:10:40;;;;;;;7.53;6.70;;;;;;;18.01;100.00;101801.91;4868606;29;20044;-79
2023/09/08 04:13:08;;;;;;;7.15;6.22;;;;;;;17.99;100.00;101813.53;4911803;29;20052;-80
2023/09/08 04:15:35;;;;;;;8.25;6.80;;;;;;;17.97;100.00;101810.88;4895522;29;20503;-79
2023/09/08 04:18:03;;;;;;;8.75;7.85;;;;;;;17.93;100.00;101810.00;4927529;29;20044;-79
2023/09/08 04:20:31;;;;;;;7.32;6.63;;;;;;;17.92;100.00;101807.41;4922460;29;20048;-80
2023/09/08 04:22:58;;;;;;;11.82;10.63;;;;;;;17.90;100.00;101803.84;4899684;29;20048;-80
2023/09/08 04:25:26;;;;;;;8.00;7.20;;;;;;;17.87;100.00;101810.09;4910043;29;20061;-80
2023/09/08 04:27:53;;;;;;;9.05;8.20;;;;;;;17.84;100.00;101807.47;4890416;29;20223;-80
2023/09/08 04:30:21;;;;;;;8.23;7.38;;;;;;;17.82;100.00;101813.69;4930959;29;20059;-80
2023/09/08 04:32:49;;;;;;;8.15;7.28;;;;;;;17.79;100.00;101805.72;4909919;29;20052;-81
2023/09/08 04:35:16;;;;;;;7.63;6.82;;;;;;;17.76;100.00;101803.97;4908082;29;20060;-79
2023/09/08 04:37:44;;;;;;;9.23;7.65;;;;;;;17.73;100.00;101806.66;4899205;29;20060;-81
2023/09/08 04:40:12;;;;;;;11.00;7.25;;;;;;;17.71;100.00;101806.72;4884186;29;20425;-80
2023/09/08 04:42:39;;;;;;;9.27;7.47;;;;;;;17.69;100.00;101804.94;4876338;29;20420;-80
2023/09/08 04:45:09;;;;;;;7.47;6.88;;;;;;;17.67;100.00;101806.75;4910303;29;20040;-81
2023/09/08 04:47:37;;;;;;;11.07;7.95;;;;;;;17.66;100.00;101805.00;4899281;29;20056;-81
2023/09/08 04:50:05;;;;;;;9.60;8.13;;;;;;;17.64;100.00;101802.34;4928042;29;20047;-80
2023/09/08 04:52:33;;;;;;;9.57;8.13;;;;;;;17.64;100.00;101806.78;4930280;29;20055;-82
2023/09/08 04:55:04;;;;;;;9.02;6.95;;;;;;;17.62;100.00;101804.13;4904465;29;20056;-79
2023/09/08 04:57:31;;;;;;;7.57;6.88;;;;;;;17.61;100.00;101806.81;4860749;29;20059;-80
2023/09/08 04:59:59;;;;;;;12.00;7.10;;;;;;;17.59;100.00;101806.81;4896242;29;20067;-80
2023/09/08 05:02:27;;;;;;;11.45;7.30;;;;;;;17.58;100.00;101806.84;4906271;29;20051;-80
2023/09/08 05:04:55;;;;;;;9.27;7.28;;;;;;;17.57;100.00;101802.41;4896035;29;20091;-79
2023/09/08 05:07:22;;;;;;;10.02;7.47;;;;;;;17.56;100.00;101798.88;4910878;29;20052;-80
2023/09/08 05:09:50;;;;;;;8.93;7.47;;;;;;;17.54;100.00;101798.00;4892818;29;20055;-80
2023/09/08 05:12:20;;;;;;;10.10;7.40;;;;;;;17.52;100.00;101794.47;4866168;29;20070;-80
2023/09/08 05:14:48;;;;;;;8.68;7.80;;;;;;;17.50;100.00;101801.59;4888758;29;20059;-82
2023/09/08 05:17:15;;;;;;;9.82;7.22;;;;;;;17.52;100.00;101799.78;4912547;29;20518;-81
2023/09/08 05:19:43;;;;;;;9.13;7.68;;;;;;;17.50;100.00;101802.50;4912494;29;20056;-80
2023/09/08 05:22:10;;;;;;;10.27;7.70;;;;;;;17.51;100.00;101801.56;4887387;29;20043;-80
2023/09/08 05:24:38;;;;;;;16.92;7.93;;;;;;;17.51;100.00;101806.03;4924817;29;20071;-80
2023/09/08 05:27:06;;;;;;;8.90;7.07;;;;;;;17.51;100.00;101806.03;4894839;29;20055;-80
2023/09/08 05:29:34;;;;;;;8.07;7.28;;;;;;;17.52;100.00;101807.78;4846739;29;20173;-81
2023/09/08 05:32:02;;;;;;;11.68;7.60;;;;;;;17.52;100.00;101808.69;4911345;29;20059;-80
2023/09/08 05:34:29;;;;;;;9.70;7.50;;;;;;;17.52;100.00;101808.69;4910896;29;20058;-81
2023/09/08 05:36:57;;;;;;;14.60;8.77;;;;;;;17.52;100.00;101800.69;4882616;29;20049;-81
2023/09/08 05:39:25;;;;;;;7.93;6.80;;;;;;;17.53;100.00;101804.22;4887652;29;20052;-80
2023/09/08 05:41:53;;;;;;;16.55;8.40;;;;;;;17.57;100.00;101799.75;4907804;29;20743;-81
2023/09/08 05:44:22;;;;;;;7.70;6.97;;;;;;;17.61;100.00;101801.47;4901433;29;20074;-79
2023/09/08 05:46:50;;;;;;;12.20;8.43;;;;;;;17.64;100.00;101798.78;4881958;29;20123;-78
2023/09/08 05:49:20;;;;;;;8.27;7.47;;;;;;;17.68;100.00;101805.84;4909846;29;20048;-78
2023/09/08 05:51:49;;;;;;;11.75;7.65;;;;;;;17.71;100.00;101806.72;4914554;29;20048;-79
2023/09/08 05:54:17;;;;;;;8.85;7.72;;;;;;;17.73;100.00;101796.91;4908394;29;20063;-79
2023/09/08 05:56:45;;;;;;;11.77;7.78;;;;;;;17.77;100.00;101807.50;4891593;29;20064;-79
2023/09/08 05:59:12;;;;;;;11.98;7.80;;;;;;;17.80;100.00;101797.69;4893225;29;20052;-79
2023/09/08 06:01:41;;;;;;;8.35;7.45;;;;;;;17.85;100.00;101806.56;4873342;29;20129;-78
2023/09/08 06:04:10;;;;;;;8.70;7.68;;;;;;;17.88;100.00;101806.53;4894039;29;20072;-79
2023/09/08 06:06:40;;;;;;;10.32;7.53;;;;;;;17.93;100.00;101798.47;4916875;29;20424;-78
2023/09/08 06:09:12;;;;;;;9.52;7.65;;;;;;;17.96;100.00;101795.78;4893368;29;20049;-79
2023/09/08 06:11:40;;;;;;;9.55;7.97;;;;;;;17.99;100.00;101801.06;4876194;29;20096;-79
2023/09/08 06:14:07;;;;;;;10.45;7.43;;;;;;;18.03;100.00;101799.25;4883222;29;20051;-79
2023/09/08 06:16:39;;;;;;;13.95;7.57;;;;;;;18.08;100.00;101802.75;4825049;29;20495;-80
2023/09/08 06:19:08;;;;;;;6.85;5.90;;;;;;;18.15;100.00;101799.09;4908352;29;20063;-78
2023/09/08 06:21:36;;;;;;;9.93;7.82;;;;;;;18.23;100.00;101801.66;4923049;29;20055;-78
2023/09/08 06:24:06;;;;;;;12.40;8.98;;;;;;;18.31;100.00;101800.63;4898498;29;20051;-78
2023/09/08 06:26:37;;;;;;;14.02;8.82;;;;;;;18.38;100.00;101800.56;4908906;29;20090;-78
2023/09/08 06:29:05;;;;;;;10.73;8.40;;;;;;;18.45;100.00;101807.56;4898116;29;20059;-79
2023/09/08 06:31:33;;;;;;;8.70;7.82;;;;;;;18.51;100.00;101803.03;4850331;29;20063;-79
2023/09/08 06:34:01;;;;;;;12.38;8.50;;;;;;;18.61;100.00;101798.44;4893590;29;20522;-78
2023/09/08 06:36:29;;;;;;;11.68;8.77;;;;;;;18.82;100.00;101797.25;4893217;29;20784;-78
2023/09/08 06:38:59;;;;;;;10.25;7.97;;;;;;;19.13;100.00;101801.19;4868780;29;20048;-77
2023/09/08 06:41:28;;;;;;;11.95;8.18;;;;;;;19.55;100.00;101804.91;4893358;29;20060;-78
2023/09/08 06:43:59;;;;;;;11.60;7.82;;;;;;;19.98;100.00;101795.16;4888606;29;20056;-78
2023/09/08 06:46:28;;;;;;;10.15;8.40;;;;;;;20.44;100.00;101794.16;4909544;29;20507;-79
2023/09/08 06:48:56;;;;;;;9.25;8.20;;;;;;;20.93;100.00;101790.34;4865689;29;20052;-78
2023/09/08 06:51:24;;;;;;;9.38;7.57;;;;;;;21.38;100.00;101792.75;4887499;29;20053;-78
2023/09/08 06:53:56;;;;;;;7.97;7.18;;;;;;;21.60;100.00;101797.53;4890691;29;20495;-78
2023/09/08 06:56:29;;;;;;;10.10;7.47;;;;;;;21.87;100.00;101792.31;4910969;29;20458;-78
2023/09/08 06:59:00;;;;;;;;;;;;;;;22.25;100.00;101785.84;4880355;29;20052;-78
2023/09/08 07:01:29;;;;;;;8.07;7.30;;;;;;;22.55;100.00;101793.84;4928073;29;19934;-79
2023/09/08 07:03:57;;;;;;;10.10;7.68;;;;;;;22.67;100.00;101781.84;4854978;29;20057;-78
2023/09/08 07:06:24;;;;;;;9.10;7.28;;;;;;;22.71;100.00;101783.50;4919690;29;20056;-78
2023/09/08 07:08:54;;;;;;;10.43;7.90;;;;;;;22.66;100.00;101780.94;4883548;29;20053;-79
2023/09/08 07:11:22;;;;;;;11.43;7.90;;;;;;;22.53;100.00;101788.56;4887209;29;20566;-78
2023/09/08 07:13:50;;;;;;;9.63;8.35;;;;;;;22.44;100.00;101786.16;4879403;29;20059;-78
2023/09/08 07:16:17;;;;;;;17.10;8.80;;;;;;;22.37;100.00;101785.44;4891257;29;20043;-78
2023/09/08 07:18:45;;;;;;;10.90;8.90;;;;;;;22.34;100.00;101784.66;4848406;29;20137;-78
2023/09/08 07:21:13;;;;;;;8.35;7.55;;;;;;;22.43;100.00;101789.75;4912925;29;20040;-80
2023/09/08 07:23:41;;;;;;;11.48;8.75;;;;;;;22.68;100.00;101788.97;4872064;29;20044;-79
2023/09/08 07:26:16;;;;;;;9.35;8.25;;;;;;;23.02;100.00;101793.22;4914092;29;20052;-78
2023/09/08 07:28:44;;;;;;;10.77;8.73;;;;;;;23.38;100.00;101804.53;4886309;29;20048;-78
2023/09/08 07:31:16;;;;;;;11.75;9.35;;;;;;;23.62;100.00;101800.09;4906506;29;20059;-78
2023/09/08 07:33:46;;;;;;;9.13;8.20;;;;;;;23.83;100.00;101803.84;4878893;29;20649;-79
2023/09/08 07:36:15;;;;;;;12.15;8.95;;;;;;;24.01;100.00;101799.59;4862608;29;20063;-79
2023/09/08 07:38:44;;;;;;;15.60;8.95;;;;;;;24.08;100.00;101801.13;4885470;29;20056;-78
2023/09/08 07:41:12;;;;;;;9.93;8.35;;;;;;;24.11;100.00;101800.97;4928286;29;20510;-78
2023/09/08 07:43:40;;;;;;;10.93;8.70;;;;;;;24.10;99.74;101806.41;4900820;29;20048;-79
2023/09/08 07:46:11;;;;;;;13.50;9.85;;;;;;;24.06;99.83;101811.03;4874490;29;20053;-78
2023/09/08 07:48:39;;;;;;;9.38;8.45;;;;;;;24.09;100.00;101804.69;4911255;29;20068;-80
2023/09/08 07:51:07;;;;;;;9.85;8.95;;;;;;;24.11;100.00;101800.13;4877659;29;20052;-79
2023/09/08 07:53:36;;;;;;;9.30;8.40;;;;;;;24.13;100.00;101800.94;4896702;29;20051;-78
2023/09/08 07:56:04;;;;;;;12.45;8.90;;;;;;;24.11;99.71;101805.50;4883848;29;20048;-79
2023/09/08 07:58:32;;;;;;;9.75;8.85;;;;;;;24.21;100.00;101792.56;4902640;29;20051;-78
2023/09/08 08:01:01;;;;;;;12.50;8.50;;;;;;;24.40;100.00;101798.97;4905396;29;20048;-78
2023/09/08 08:03:28;;;;;;;9.27;8.20;;;;;;;24.60;100.00;101789.25;4901700;29;20420;-79
2023/09/08 08:05:59;;;;;;;10.60;8.32;;;;;;;24.79;99.90;101792.94;4910793;29;20448;-79
2023/09/08 08:08:26;;;;;;;10.02;9.02;;;;;;;24.92;99.91;101790.59;4853196;29;20060;-80
2023/09/08 08:10:54;;;;;;;11.93;9.30;;;;;;;25.10;99.61;101788.94;4875561;29;20048;-79
2023/09/08 08:13:22;;;;;;;10.60;7.95;;;;;;;25.38;98.83;101787.78;4874685;29;20068;-79
2023/09/08 08:15:49;;;;;;;10.18;8.98;;;;;;;25.59;98.39;101786.81;4891161;29;20060;-79
2023/09/08 08:18:17;;;;;;;16.15;8.90;;;;;;;25.80;97.89;101778.69;4900319;29;20052;-78
2023/09/08 08:20:45;;;;;;;9.05;8.25;;;;;;;25.99;96.94;101790.44;4903388;29;20040;-79
2023/09/08 08:23:13;;;;;;;8.38;7.57;;;;;;;26.25;95.57;101788.31;4853956;29;20079;-78
2023/09/08 08:25:40;;;;;;;8.52;7.70;;;;;;;26.48;94.35;101791.72;4892303;29;20076;-80
2023/09/08 08:28:07;;;;;;;7.50;6.72;;;;;;;26.66;93.59;101796.25;4911564;29;20052;-78
2023/09/08 08:30:35;;;;;;;9.27;6.95;;;;;;;26.84;93.00;101795.34;4896280;29;20075;-79
2023/09/08 08:33:04;;;;;;;7.53;6.88;;;;;;;27.01;91.97;101797.19;4889606;29;20048;-78
2023/09/08 08:35:32;;;;;;;7.47;6.78;;;;;;;27.14;90.82;101800.13;4884121;29;20056;-78
2023/09/08 08:38:02;;;;;;;10.75;6.65;;;;;;;27.31;89.40;101801.13;4863516;29;20048;-79
2023/09/08 08:40:31;;;;;;;7.53;5.88;;;;;;;27.47;88.12;101801.19;4894195;29;20059;-79
2023/09/08 08:43:00;;;;;;;9.23;5.85;;;;;;;27.61;86.30;101793.22;4910016;29;20056;-78
2023/09/08 08:45:29;;;;;;;6.60;5.15;;;;;;;27.69;85.85;101800.91;4886539;29;20071;-78
2023/09/08 08:47:57;;;;;;;5.80;5.25;;;;;;;27.74;84.93;101796.13;4870468;29;20055;-79
2023/09/08 08:50:26;;;;;;;6.40;5.13;;;;;;;27.80;83.87;101788.53;4898115;29;20060;-78
2023/09/08 08:52:54;;;;;;;6.90;4.88;;;;;;;27.85;83.33;101788.31;4875387;29;20059;-78
2023/09/08 08:55:24;;;;;;;11.05;4.97;;;;;;;27.94;82.84;101792.34;4876817;29;20052;-77
2023/09/08 08:57:53;;;;;;;;;;;;;;;28.03;82.85;101788.28;4902183;29;20049;-77
2023/09/08 09:00:20;;;;;;;7.85;5.15;;;;;;;28.09;80.49;101787.94;4904869;29;19926;-78
2023/09/08 09:02:51;;;;;;;6.90;4.10;;;;;;;28.09;79.63;101782.50;4914150;29;20052;-78
2023/09/08 09:05:38;;;;;;;6.93;4.30;;;;;;;27.99;79.05;101790.28;4892040;29;20060;-79
2023/09/08 09:08:06;;;;;;;4.85;4.35;;;;;;;27.92;78.57;101794.28;4882442;29;20060;-78
2023/09/08 09:10:35;;;;;;;5.35;4.53;;;;;;;27.84;79.00;101799.22;4867533;29;20047;-78
2023/09/08 09:13:02;;;;;;;7.00;4.57;;;;;;;27.76;79.30;101796.94;4897387;29;20055;-82
2023/09/08 09:15:32;;;;;;;6.10;5.05;;;;;;;27.60;79.51;101792.34;4909008;29;20052;-79
2023/09/08 09:18:07;;;;;;;7.68;4.90;;;;;;;27.33;80.99;101794.66;4895245;29;20044;-79
2023/09/08 09:20:37;;;;;;;5.07;4.40;;;;;;;27.21;81.14;101801.56;4893600;29;20059;-79
2023/09/08 09:23:04;;;;;;;4.97;4.30;;;;;;;27.08;81.44;101792.34;4898603;29;20043;-80
2023/09/08 09:25:32;;;;;;;7.85;4.65;;;;;;;27.02;81.79;101793.53;4859952;29;20499;-77
2023/09/08 09:28:03;;;;;;;4.82;4.15;;;;;;;26.99;83.11;101792.81;4910950;29;20052;-79
2023/09/08 09:30:49;;;;;;;5.32;4.60;;;;;;;26.95;83.90;101791.22;4909400;29;20505;-78
2023/09/08 09:33:17;;;;;;;5.63;5.13;;;;;;;26.91;83.78;101786.91;4871918;29;20051;-78
2023/09/08 09:35:47;;;;;;;5.70;4.43;;;;;;;26.88;84.17;101790.66;4908933;29;20063;-78
2023/09/08 09:38:14;;;;;;;5.03;4.00;;;;;;;26.88;83.38;101790.66;4899443;29;20051;-79
2023/09/08 09:40:42;;;;;;;4.55;4.10;;;;;;;26.89;83.02;101794.25;4863955;29;20044;-79
2023/09/08 09:43:11;;;;;;;5.88;3.78;;;;;;;26.90;83.24;101793.25;4910870;29;20063;-79
2023/09/08 09:45:42;;;;;;;9.68;4.15;;;;;;;26.89;83.55;101795.09;4910693;29;20051;-79
2023/09/08 09:48:10;;;;;;;5.80;3.85;;;;;;;26.90;83.54;101787.84;4897093;29;20079;-78
2023/09/08 09:50:40;;;;;;;6.28;4.22;;;;;;;26.91;84.15;101782.38;4899232;29;20060;-78
2023/09/08 09:53:09;;;;;;;6.43;3.78;;;;;;;26.93;84.48;101776.91;4903920;29;20043;-79
2023/09/08 09:55:40;;;;;;;3.97;3.58;;;;;;;26.93;84.28;101774.19;4923743;29;20051;-79
2023/09/08 09:58:10;;;;;;;6.18;4.13;;;;;;;26.93;83.89;101769.66;4868831;29;20065;-79
2023/09/08 10:00:40;;;;;;;6.85;4.10;;;;;;;26.94;84.48;101771.41;4916840;29;20055;-79
2023/09/08 10:03:10;;;;;;;13.90;4.57;;;;;;;26.99;85.01;101768.47;4893533;29;20056;-79
2023/09/08 10:05:38;;;;;;;4.20;3.90;;;;;;;27.03;84.31;101770.94;4879417;29;20052;-80
2023/09/08 10:08:06;;;;;;;6.55;4.00;;;;;;;27.04;83.65;101778.09;4888001;29;20047;-78
2023/09/08 10:10:36;;;;;;;5.55;4.10;;;;;;;27.08;83.98;101768.00;4888472;29;20063;-79
2023/09/08 10:13:06;;;;;;;5.38;4.05;;;;;;;27.12;84.25;101764.16;4867632;29;20044;-80
2023/09/08 10:15:34;;;;;;;7.72;4.47;;;;;;;27.15;82.37;101763.16;4902112;29;20553;-78
2023/09/08 10:18:04;;;;;;;5.75;3.58;;;;;;;27.20;81.54;101761.06;4907213;29;20408;-79
2023/09/08 10:20:34;;;;;;;7.43;3.60;;;;;;;27.25;82.06;101755.41;4909461;29;20431;-78
2023/09/08 10:23:09;;;;;;;3.92;3.10;;;;;;;27.31;82.09;101747.00;4921189;29;20056;-77
2023/09/08 10:25:43;;;;;;;4.05;3.70;;;;;;;27.33;81.89;101742.38;4892859;29;20050;-79
2023/09/08 10:28:13;;;;;;;4.03;3.20;;;;;;;27.40;81.13;101746.53;4935950;28;20467;-78
2023/09/08 10:30:41;;;;;;;3.80;3.40;;;;;;;27.45;80.80;101743.56;4875753;29;20082;-78
2023/09/08 10:33:11;;;;;;;8.07;4.20;;;;;;;27.50;82.32;101747.75;4906617;29;20063;-78
2023/09/08 10:35:40;;;;;;;7.13;3.53;;;;;;;27.58;81.10;101737.41;4896997;29;20065;-79
2023/09/08 10:38:27;;;;;;;8.98;3.30;;;;;;;27.63;79.93;101750.69;4902645;29;20060;-78
2023/09/08 10:41:24;;;;;;;8.05;3.00;;;;;;;27.67;78.44;101741.44;4908710;29;20059;-79
2023/09/08 10:43:56;;;;;;;3.22;2.92;;;;;;;27.70;77.61;101743.97;4873777;29;20052;-78
2023/09/08 10:46:28;;;;;;;5.15;3.53;;;;;;;27.75;76.17;101736.50;4883340;29;20048;-80
2023/09/08 10:49:04;;;;;;;7.38;3.13;;;;;;;27.81;76.29;101746.09;4900660;29;20048;-80
2023/09/08 10:51:32;;;;;;;5.55;2.83;;;;;;;27.91;75.89;101749.22;4922379;29;20496;-80
2023/09/08 10:54:00;;;;;;;6.88;3.15;;;;;;;27.98;75.81;101750.63;4897078;29;20047;-80
2023/09/08 10:56:53;;;;;;;3.58;3.28;;;;;;;28.03;75.56;101734.97;4898830;29;20056;-80
2023/09/08 10:59:22;;;;;;;8.43;3.35;;;;;;;28.09;75.49;101741.88;4910601;29;20083;-81
2023/09/08 11:01:50;;;;;;;4.25;3.38;;;;;;;28.12;75.52;101741.69;4856328;29;20052;-83
2023/09/08 11:04:18;;;;;;;3.08;2.78;;;;;;;28.16;76.65;101741.44;4897597;29;20036;-82
2023/09/08 11:06:46;;;;;;;3.83;3.15;;;;;;;28.23;75.61;101738.41;4895615;29;20056;-80
2023/09/08 11:09:14;;;;;;;3.80;3.25;;;;;;;28.28;74.38;101730.84;4894806;29;20083;-81
2023/09/08 11:11:41;;;;;;;5.20;3.78;;;;;;;28.35;73.84;101735.81;4877228;29;20064;-79
2023/09/08 11:14:09;;;;;;;7.10;3.05;;;;;;;28.39;73.29;101741.94;4907115;29;20075;-80
2023/09/08 11:16:37;;;;;;;4.40;3.28;;;;;;;28.44;73.98;101738.97;4867991;29;20456;-80
2023/09/08 11:19:04;;;;;;;6.22;2.95;;;;;;;28.52;74.01;101731.31;4901124;29;20056;-80
2023/09/08 11:21:35;;;;;;;4.07;2.83;;;;;;;28.58;73.06;101734.53;4914135;29;20071;-79
2023/09/08 11:24:04;;;;;;;5.28;3.40;;;;;;;28.65;74.27;101724.19;4897443;29;20040;-78